createdAt,value
2023-02-14T00:00:49.777Z,0.45
2023-02-14T00:03:16.781Z,0.90
2023-02-14T00:05:43.681Z,1.26
2023-02-14T00:08:10.652Z,1.16
2023-02-14T00:10:37.822Z,1.19
2023-02-14T00:13:05.438Z,1.05
2023-02-14T00:15:32.369Z,0.88
2023-02-14T00:18:03.193Z,0.88
2023-02-14T00:20:30.147Z,-0.04
2023-02-14T00:22:57.175Z,-0.18
2023-02-14T00:25:24.102Z,-0.51
2023-02-14T00:27:51.097Z,-0.97
2023-02-14T00:30:18.012Z,-1.02
2023-02-14T00:32:44.895Z,-1.22
2023-02-14T00:35:12.306Z,-1.45
2023-02-14T00:37:41.405Z,-1.08
2023-02-14T00:40:09.175Z,-0.94
2023-02-14T00:42:36.065Z,-1.19
2023-02-14T00:45:03.860Z,-0.94
2023-02-14T00:47:30.827Z,-0.78
2023-02-14T00:50:02.976Z,-0.69
2023-02-14T00:52:31.159Z,-0.85
2023-02-14T00:54:58.395Z,-0.53
2023-02-14T00:57:25.385Z,-0.37
2023-02-14T00:59:52.311Z,-0.58
2023-02-14T01:02:21.265Z,-0.52
2023-02-14T01:04:48.168Z,-0.64
2023-02-14T01:07:15.109Z,-0.64
2023-02-14T01:09:42.271Z,-0.63
2023-02-14T01:12:09.208Z,-0.59
2023-02-14T01:14:36.103Z,-0.69
2023-02-14T01:17:03.001Z,-0.71
2023-02-14T01:19:29.955Z,-0.66
2023-02-14T01:21:56.913Z,-0.28
2023-02-14T01:24:25.205Z,-0.30
2023-02-14T01:26:52.272Z,-0.32
2023-02-14T01:29:19.321Z,-0.63
2023-02-14T01:31:48.509Z,-0.31
2023-02-14T01:34:15.423Z,-0.29
2023-02-14T01:36:42.643Z,-0.36
2023-02-14T01:39:15.571Z,-0.30
2023-02-14T01:41:50.270Z,-0.06
2023-02-14T01:44:17.223Z,-0.02
2023-02-14T01:46:47.160Z,-0.08
2023-02-14T01:49:19.681Z,-0.02
2023-02-14T01:51:53.094Z,-0.03
2023-02-14T01:54:24.210Z,0.31
2023-02-14T01:56:57.301Z,0.52
2023-02-14T01:59:27.091Z,0.71
2023-02-14T02:01:54.509Z,0.52
2023-02-14T02:04:28.608Z,0.54
2023-02-14T02:07:01.079Z,0.96
2023-02-14T02:09:37.627Z,0.71
2023-02-14T02:12:05.090Z,1.16
2023-02-14T02:14:32.823Z,1.32
2023-02-14T02:17:24.353Z,1.28
2023-02-14T02:20:12.474Z,1.40
2023-02-14T02:23:17.107Z,1.23
2023-02-14T02:25:59.311Z,1.16
2023-02-14T02:29:02.412Z,1.13
2023-02-14T02:32:13.722Z,0.38
2023-02-14T02:34:58.780Z,0.61
2023-02-14T02:37:34.410Z,0.55
2023-02-14T02:40:15.664Z,0.39
2023-02-14T02:43:19.085Z,0.42
2023-02-14T02:46:14.115Z,0.52
2023-02-14T02:48:48.213Z,0.39
2023-02-14T02:51:46.008Z,0.50
2023-02-14T02:54:51.607Z,0.65
2023-02-14T02:57:25.752Z,0.77
2023-02-14T02:59:56.244Z,0.74
2023-02-14T03:02:32.310Z,0.79
2023-02-14T03:05:05.501Z,0.77
2023-02-14T03:07:37.594Z,1.04
2023-02-14T03:10:15.353Z,1.11
2023-02-14T03:12:43.828Z,1.20
2023-02-14T03:15:32.107Z,1.04
2023-02-14T03:18:57.713Z,1.18
2023-02-14T03:21:33.740Z,1.31
2023-02-14T03:24:24.915Z,1.12
2023-02-14T03:26:56.229Z,1.14
2023-02-14T03:29:31.562Z,1.10
2023-02-14T03:32:11.693Z,1.05
2023-02-14T03:34:43.260Z,0.96
2023-02-14T03:37:46.023Z,0.88
2023-02-14T03:40:30.186Z,0.92
2023-02-14T03:43:10.781Z,0.77
2023-02-14T03:45:44.448Z,0.72
2023-02-14T03:48:14.552Z,0.62
2023-02-14T03:50:45.658Z,0.17
2023-02-14T03:53:17.137Z,0.22
2023-02-14T03:56:24.252Z,0.41
2023-02-14T03:58:56.557Z,0.59
2023-02-14T04:01:55.742Z,0.33
2023-02-14T04:04:27.305Z,0.30
2023-02-14T04:06:54.284Z,0.29
2023-02-14T04:09:21.199Z,0.16
2023-02-14T04:11:50.625Z,-0.51
2023-02-14T04:14:17.892Z,-0.67
2023-02-14T04:17:03.850Z,-0.78
2023-02-14T04:19:30.876Z,-0.86
2023-02-14T04:21:57.841Z,-1.01
2023-02-14T04:24:24.733Z,-1.00
2023-02-14T04:27:05.998Z,-1.00
2023-02-14T04:29:32.926Z,-0.82
2023-02-14T04:31:59.977Z,-0.82
2023-02-14T04:34:27.005Z,-0.70
2023-02-14T04:36:53.934Z,-0.53
2023-02-14T04:39:20.827Z,-0.54
2023-02-14T04:41:47.701Z,-0.56
2023-02-14T04:44:14.551Z,-0.53
2023-02-14T04:46:41.685Z,-0.34
2023-02-14T04:49:08.643Z,-0.26
2023-02-14T04:51:35.560Z,-0.04
2023-02-14T04:54:02.469Z,0.01
2023-02-14T04:56:29.458Z,0.32
2023-02-14T04:58:56.360Z,0.51
2023-02-14T05:01:23.473Z,0.59
2023-02-14T05:03:50.409Z,0.67
2023-02-14T05:06:17.455Z,0.94
2023-02-14T05:08:44.334Z,0.96
2023-02-14T05:11:11.267Z,0.98
2023-02-14T05:13:38.148Z,0.92
2023-02-14T05:16:05.397Z,1.06
2023-02-14T05:18:32.302Z,1.24
2023-02-14T05:20:59.381Z,1.45
2023-02-14T05:23:26.601Z,1.97
2023-02-14T05:25:53.492Z,2.35
2023-02-14T05:28:20.591Z,2.75
2023-02-14T05:30:47.529Z,2.51
2023-02-14T05:33:14.382Z,2.77
2023-02-14T05:35:41.337Z,2.60
2023-02-14T05:38:08.532Z,4.12
2023-02-14T05:40:35.557Z,5.42
2023-02-14T05:43:02.462Z,5.83
2023-02-14T05:45:29.406Z,5.42
2023-02-14T05:47:56.310Z,6.93
2023-02-14T05:50:23.174Z,8.09
2023-02-14T05:52:54.070Z,9.43
2023-02-14T05:55:21.096Z,10.40
2023-02-14T05:57:48.117Z,11.64
2023-02-14T06:00:15.630Z,12.25
2023-02-14T06:02:42.637Z,12.83
2023-02-14T06:05:09.613Z,13.42
2023-02-14T06:07:36.501Z,13.66
2023-02-14T06:10:03.805Z,13.15
2023-02-14T06:12:30.674Z,12.30
2023-02-14T06:14:57.557Z,11.89
2023-02-14T06:17:24.374Z,12.61
2023-02-14T06:19:51.339Z,13.04
2023-02-14T06:22:18.257Z,12.14
2023-02-14T06:24:45.225Z,11.03
2023-02-14T06:27:12.097Z,10.66
2023-02-14T06:29:39.036Z,11.01
2023-02-14T06:32:07.090Z,11.04
2023-02-14T06:34:34.905Z,11.40
2023-02-14T06:37:01.865Z,10.71
2023-02-14T06:39:28.759Z,10.73
2023-02-14T06:41:55.702Z,9.80
2023-02-14T06:44:22.647Z,8.99
2023-02-14T06:46:49.589Z,9.77
2023-02-14T06:49:16.519Z,10.91
2023-02-14T06:51:43.454Z,13.05
2023-02-14T06:54:10.450Z,14.14
2023-02-14T06:56:37.486Z,14.86
2023-02-14T06:59:04.490Z,15.04
2023-02-14T07:01:31.433Z,14.28
2023-02-14T07:03:58.407Z,13.11
2023-02-14T07:06:25.326Z,10.95
2023-02-14T07:08:52.368Z,9.48
2023-02-14T07:11:19.332Z,9.80
2023-02-14T07:13:47.991Z,9.42
2023-02-14T07:16:16.199Z,8.82
2023-02-14T07:18:43.089Z,7.59
2023-02-14T07:21:10.093Z,6.62
2023-02-14T07:23:36.980Z,7.03
2023-02-14T07:26:03.985Z,7.13
2023-02-14T07:28:31.031Z,6.71
2023-02-14T07:31:01.826Z,6.94
2023-02-14T07:33:28.971Z,7.70
2023-02-14T07:35:56.754Z,7.70
2023-02-14T07:38:24.593Z,7.39
2023-02-14T07:40:54.004Z,7.79
2023-02-14T07:43:20.908Z,7.62
2023-02-14T07:45:48.498Z,7.12
2023-02-14T07:48:15.458Z,7.39
2023-02-14T07:50:42.350Z,8.18
2023-02-14T07:53:09.495Z,7.76
2023-02-14T07:55:36.602Z,7.93
2023-02-14T07:58:03.683Z,8.47
2023-02-14T08:00:30.932Z,8.42
2023-02-14T08:02:57.903Z,8.91
2023-02-14T08:05:24.841Z,9.26
2023-02-14T08:07:51.775Z,8.20
2023-02-14T08:10:18.840Z,7.96
2023-02-14T08:13:00.815Z,8.19
2023-02-14T08:15:48.653Z,7.75
2023-02-14T08:18:17.746Z,7.97
2023-02-14T08:20:51.223Z,8.46
2023-02-14T08:23:19.812Z,8.47
2023-02-14T08:25:48.632Z,8.57
2023-02-14T08:28:15.558Z,8.83
2023-02-14T08:30:44.720Z,8.52
2023-02-14T08:33:12.026Z,9.40
2023-02-14T08:35:39.380Z,9.27
2023-02-14T08:38:06.709Z,9.54
2023-02-14T08:40:35.283Z,9.82
2023-02-14T08:43:02.218Z,10.72
2023-02-14T08:45:29.151Z,10.80
2023-02-14T08:48:01.541Z,10.43
2023-02-14T08:50:28.818Z,9.77
2023-02-14T08:52:55.647Z,10.60
2023-02-14T08:55:22.546Z,9.91
2023-02-14T08:57:49.558Z,9.87
2023-02-14T09:00:17.134Z,9.84
2023-02-14T09:02:44.561Z,10.28
2023-02-14T09:05:11.610Z,10.13
2023-02-14T09:07:38.538Z,9.87
2023-02-14T09:10:06.260Z,10.18
2023-02-14T09:12:33.166Z,9.64
2023-02-14T09:15:00.140Z,10.68
2023-02-14T09:17:27.095Z,10.07
2023-02-14T09:19:54.032Z,10.84
2023-02-14T09:22:22.140Z,11.71
2023-02-14T09:24:49.328Z,12.07
2023-02-14T09:27:16.343Z,12.66
2023-02-14T09:29:43.228Z,12.90
2023-02-14T09:32:10.403Z,13.27
2023-02-14T09:34:37.376Z,13.68
2023-02-14T09:37:22.954Z,13.42
2023-02-14T09:39:49.706Z,14.60
2023-02-14T09:42:42.289Z,14.71
2023-02-14T09:45:29.869Z,12.49
2023-02-14T09:48:12.029Z,12.53
2023-02-14T09:50:42.664Z,12.94
2023-02-14T09:53:15.363Z,12.34
2023-02-14T09:55:52.281Z,13.75
2023-02-14T09:58:33.776Z,14.05
2023-02-14T10:01:19.002Z,12.95
2023-02-14T10:04:18.368Z,13.56
2023-02-14T10:07:12.260Z,13.75
2023-02-14T10:10:00.226Z,12.75
2023-02-14T10:12:33.828Z,14.62
2023-02-14T10:15:08.210Z,13.81
2023-02-14T10:17:40.826Z,13.34
2023-02-14T10:20:18.976Z,13.96
2023-02-14T10:22:55.188Z,13.66
2023-02-14T10:25:44.062Z,12.68
2023-02-14T10:28:16.806Z,11.93
2023-02-14T10:30:56.789Z,11.80
2023-02-14T10:33:30.336Z,12.77
2023-02-14T10:36:06.016Z,13.40
2023-02-14T10:38:32.879Z,12.88
2023-02-14T10:41:24.134Z,12.51
2023-02-14T10:43:57.031Z,12.86
2023-02-14T10:46:24.090Z,15.04
2023-02-14T10:49:12.961Z,14.21
2023-02-14T10:51:44.814Z,13.75
2023-02-14T10:54:29.220Z,13.90
2023-02-14T10:57:02.961Z,15.85
2023-02-14T10:59:44.435Z,16.24
2023-02-14T11:02:16.030Z,16.00
2023-02-14T11:04:46.732Z,16.12
2023-02-14T11:07:19.483Z,16.68
2023-02-14T11:09:46.572Z,15.58
2023-02-14T11:12:34.349Z,15.92
2023-02-14T11:15:19.734Z,15.22
2023-02-14T11:17:46.721Z,16.19
2023-02-14T11:20:22.723Z,16.09
2023-02-14T11:22:50.248Z,15.72
2023-02-14T11:25:31.722Z,14.65
2023-02-14T11:28:04.617Z,15.30
2023-02-14T11:30:39.718Z,15.40
2023-02-14T11:33:09.608Z,15.99
2023-02-14T11:35:37.974Z,16.77
2023-02-14T11:38:07.248Z,16.59
2023-02-14T11:40:38.801Z,16.45
2023-02-14T11:43:14.175Z,14.81
2023-02-14T11:45:44.519Z,15.89
2023-02-14T11:48:37.310Z,15.79
2023-02-14T11:51:11.108Z,14.72
2023-02-14T11:54:00.763Z,15.81
2023-02-14T11:56:46.069Z,13.39
2023-02-14T11:59:24.115Z,14.54
2023-02-14T12:01:52.648Z,13.98
2023-02-14T12:04:38.198Z,14.31
2023-02-14T12:07:14.370Z,14.96
2023-02-14T12:09:43.257Z,13.63
2023-02-14T12:12:23.424Z,13.43
2023-02-14T12:14:50.662Z,13.26
2023-02-14T12:17:36.929Z,14.15
2023-02-14T12:20:12.010Z,13.39
2023-02-14T12:23:03.930Z,13.40
2023-02-14T12:26:00.399Z,11.51
2023-02-14T12:28:57.810Z,11.57
2023-02-14T12:31:24.833Z,11.07
2023-02-14T12:33:51.940Z,10.84
2023-02-14T12:36:43.704Z,12.77
2023-02-14T12:39:27.893Z,15.73
2023-02-14T12:42:23.615Z,13.98
2023-02-14T12:45:08.310Z,13.05
2023-02-14T12:48:02.867Z,12.10
2023-02-14T12:50:37.125Z,11.84
2023-02-14T12:53:22.176Z,13.82
2023-02-14T12:56:16.829Z,15.62
2023-02-14T12:58:56.852Z,17.24
2023-02-14T13:02:05.185Z,20.02
2023-02-14T13:04:47.209Z,17.71
2023-02-14T13:07:45.895Z,19.17
2023-02-14T13:10:49.331Z,20.52
2023-02-14T13:13:25.261Z,17.70
2023-02-14T13:16:05.102Z,18.51
2023-02-14T13:18:53.887Z,19.80
2023-02-14T13:21:26.443Z,18.77
2023-02-14T13:24:27.614Z,15.92
2023-02-14T13:27:03.452Z,15.45
2023-02-14T13:29:45.573Z,14.52
2023-02-14T13:32:16.982Z,14.26
2023-02-14T13:34:47.171Z,13.08
2023-02-14T13:37:17.948Z,12.31
2023-02-14T13:40:15.897Z,11.08
2023-02-14T13:42:51.567Z,11.04
2023-02-14T13:45:35.621Z,10.24
2023-02-14T13:48:11.381Z,11.08
2023-02-14T13:50:41.296Z,11.30
2023-02-14T13:53:13.959Z,10.97
2023-02-14T13:55:45.977Z,10.57
2023-02-14T13:58:21.860Z,11.56
2023-02-14T14:00:49.988Z,12.37
2023-02-14T14:03:28.949Z,11.34
2023-02-14T14:06:04.823Z,10.71
2023-02-14T14:08:32.106Z,10.09
2023-02-14T14:11:27.453Z,9.75
2023-02-14T14:13:58.606Z,9.62
2023-02-14T14:16:28.552Z,9.31
2023-02-14T14:19:30.589Z,9.42
2023-02-14T14:22:15.311Z,9.25
2023-02-14T14:24:55.790Z,8.91
2023-02-14T14:27:45.046Z,8.65
2023-02-14T14:30:28.551Z,8.87
2023-02-14T14:32:55.592Z,8.18
2023-02-14T14:35:25.095Z,8.31
2023-02-14T14:37:55.199Z,8.60
2023-02-14T14:40:26.769Z,8.53
2023-02-14T14:42:55.904Z,8.07
2023-02-14T14:45:28.603Z,8.23
2023-02-14T14:48:00.553Z,8.54
2023-02-14T14:50:31.467Z,9.18
2023-02-14T14:53:03.164Z,8.53
2023-02-14T14:55:33.122Z,8.15
2023-02-14T14:58:05.595Z,7.88
2023-02-14T15:00:35.589Z,7.74
2023-02-14T15:03:02.465Z,7.56
2023-02-14T15:05:33.812Z,7.51
2023-02-14T15:08:27.872Z,7.29
2023-02-14T15:11:00.379Z,7.30
2023-02-14T15:13:51.394Z,7.26
2023-02-14T15:16:23.426Z,7.51
2023-02-14T15:18:52.588Z,7.75
2023-02-14T15:21:20.011Z,7.45
2023-02-14T15:23:47.233Z,7.58
2023-02-14T15:26:29.864Z,7.15
2023-02-14T15:29:00.301Z,7.01
2023-02-14T15:31:31.497Z,7.10
2023-02-14T15:34:01.522Z,6.68
2023-02-14T15:36:30.181Z,6.86
2023-02-14T15:38:58.028Z,6.55
2023-02-14T15:41:27.043Z,6.46
2023-02-14T15:43:56.250Z,6.60
2023-02-14T15:46:34.848Z,6.34
2023-02-14T15:49:08.004Z,6.30
2023-02-14T15:51:36.566Z,6.54
2023-02-14T15:54:18.799Z,6.82
2023-02-14T15:56:49.241Z,7.12
2023-02-14T15:59:23.596Z,7.07
2023-02-14T16:01:58.981Z,6.74
2023-02-14T16:04:26.995Z,6.74
2023-02-14T16:07:29.944Z,6.60
2023-02-14T16:10:24.233Z,6.47
2023-02-14T16:12:58.780Z,6.56
2023-02-14T16:15:32.023Z,6.52
2023-02-14T16:18:01.159Z,6.54
2023-02-14T16:20:39.712Z,6.47
2023-02-14T16:23:39.427Z,6.11
2023-02-14T16:26:06.917Z,6.26
2023-02-14T16:28:36.955Z,6.46
2023-02-14T16:31:10.254Z,6.00
2023-02-14T16:33:41.088Z,6.10
2023-02-14T16:36:27.300Z,6.31
2023-02-14T16:38:54.983Z,6.07
2023-02-14T16:41:29.813Z,6.23
2023-02-14T16:43:57.314Z,6.23
2023-02-14T16:46:29.042Z,6.26
2023-02-14T16:48:57.325Z,6.05
2023-02-14T16:51:27.743Z,6.03
2023-02-14T16:53:57.450Z,6.05
2023-02-14T16:56:28.848Z,6.07
2023-02-14T16:58:59.152Z,6.14
2023-02-14T17:01:26.116Z,6.38
2023-02-14T17:03:53.471Z,6.48
2023-02-14T17:06:23.424Z,6.09
2023-02-14T17:08:52.499Z,6.41
2023-02-14T17:11:20.245Z,6.40
2023-02-14T17:13:48.096Z,6.33
2023-02-14T17:16:16.617Z,6.21
2023-02-14T17:18:49.041Z,6.01
2023-02-14T17:21:18.284Z,6.00
2023-02-14T17:23:45.471Z,5.90
2023-02-14T17:26:12.493Z,6.02
2023-02-14T17:28:39.422Z,6.21
2023-02-14T17:31:06.558Z,6.15
2023-02-14T17:33:33.874Z,6.06
2023-02-14T17:36:06.742Z,6.19
2023-02-14T17:38:36.091Z,5.89
2023-02-14T17:41:23.624Z,6.08
2023-02-14T17:43:53.161Z,5.95
2023-02-14T17:46:20.769Z,6.06
2023-02-14T17:48:49.141Z,5.90
2023-02-14T17:51:18.298Z,5.84
2023-02-14T17:53:46.892Z,5.73
2023-02-14T17:56:18.142Z,5.87
2023-02-14T17:58:47.840Z,5.94
2023-02-14T18:01:16.190Z,5.59
2023-02-14T18:03:43.075Z,5.64
2023-02-14T18:06:11.456Z,5.83
2023-02-14T18:08:49.911Z,5.69
2023-02-14T18:11:18.663Z,5.93
2023-02-14T18:13:46.493Z,6.02
2023-02-14T18:16:16.304Z,6.11
2023-02-14T18:18:43.318Z,6.34
2023-02-14T18:21:12.436Z,6.39
2023-02-14T18:23:39.531Z,6.17
2023-02-14T18:26:10.752Z,5.94
2023-02-14T18:28:38.202Z,5.67
2023-02-14T18:31:17.081Z,5.72
2023-02-14T18:33:45.404Z,5.87
2023-02-14T18:36:15.154Z,5.90
2023-02-14T18:38:44.438Z,5.92
2023-02-14T18:41:16.257Z,5.87
2023-02-14T18:43:44.739Z,5.94
2023-02-14T18:46:20.575Z,5.88
2023-02-14T18:48:48.027Z,5.85
2023-02-14T18:51:16.380Z,5.87
2023-02-14T18:53:44.952Z,5.61
2023-02-14T18:56:14.590Z,5.42
2023-02-14T18:58:44.147Z,5.44
2023-02-14T19:01:13.920Z,5.48
2023-02-14T19:03:41.293Z,5.52
2023-02-14T19:06:09.790Z,5.36
2023-02-14T19:08:39.113Z,5.38
2023-02-14T19:11:21.535Z,5.33
2023-02-14T19:13:53.658Z,5.34
2023-02-14T19:16:24.560Z,5.27
2023-02-14T19:18:53.392Z,5.22
2023-02-14T19:21:26.095Z,5.24
2023-02-14T19:23:56.127Z,5.34
2023-02-14T19:26:33.018Z,5.32
2023-02-14T19:29:04.027Z,5.21
2023-02-14T19:31:36.578Z,5.22
2023-02-14T19:34:05.391Z,5.13
2023-02-14T19:36:35.266Z,5.18
2023-02-14T19:39:03.075Z,4.97
2023-02-14T19:41:31.928Z,4.79
2023-02-14T19:43:59.471Z,4.79
2023-02-14T19:46:27.758Z,4.73
2023-02-14T19:48:56.568Z,4.81
2023-02-14T19:51:26.600Z,5.10
2023-02-14T19:53:54.848Z,4.98
2023-02-14T19:56:24.903Z,4.76
2023-02-14T19:58:52.625Z,4.50
2023-02-14T20:01:22.400Z,4.46
2023-02-14T20:03:49.310Z,4.51
2023-02-14T20:06:16.337Z,4.57
2023-02-14T20:08:43.423Z,4.65
2023-02-14T20:11:20.592Z,4.99
2023-02-14T20:13:47.911Z,4.98
2023-02-14T20:16:14.926Z,5.03
2023-02-14T20:18:41.909Z,5.11
2023-02-14T20:21:17.214Z,5.07
2023-02-14T20:23:44.935Z,5.12
2023-02-14T20:26:16.153Z,5.02
2023-02-14T20:28:43.608Z,4.86
2023-02-14T20:31:12.602Z,4.87
2023-02-14T20:33:40.502Z,5.04
2023-02-14T20:36:08.900Z,4.94
2023-02-14T20:38:36.064Z,4.87
2023-02-14T20:41:12.100Z,4.65
2023-02-14T20:43:39.729Z,4.75
2023-02-14T20:46:07.325Z,4.82
2023-02-14T20:48:34.945Z,4.90
2023-02-14T20:51:18.196Z,4.86
2023-02-14T20:53:46.210Z,4.91
2023-02-14T20:56:14.598Z,4.56
2023-02-14T20:58:42.031Z,4.69
2023-02-14T21:01:10.096Z,4.76
2023-02-14T21:03:37.721Z,4.94
2023-02-14T21:06:07.202Z,5.10
2023-02-14T21:08:35.336Z,5.15
2023-02-14T21:11:04.543Z,5.18
2023-02-14T21:13:31.788Z,5.17
2023-02-14T21:16:04.007Z,5.33
2023-02-14T21:18:32.060Z,5.32
2023-02-14T21:21:18.942Z,5.26
2023-02-14T21:23:52.206Z,5.09
2023-02-14T21:26:21.355Z,5.22
2023-02-14T21:28:48.646Z,4.96
2023-02-14T21:31:18.096Z,4.92
2023-02-14T21:33:45.260Z,4.82
2023-02-14T21:36:17.372Z,4.83
2023-02-14T21:38:45.019Z,4.86
2023-02-14T21:41:15.148Z,4.72
2023-02-14T21:43:44.125Z,4.82
2023-02-14T21:46:14.324Z,4.81
2023-02-14T21:49:00.707Z,4.65
2023-02-14T21:51:27.925Z,4.68
2023-02-14T21:53:56.281Z,4.73
2023-02-14T21:56:23.966Z,4.83
2023-02-14T21:58:53.105Z,4.82
2023-02-14T22:01:25.462Z,4.93
2023-02-14T22:03:53.130Z,5.00
2023-02-14T22:06:20.490Z,5.12
2023-02-14T22:08:52.296Z,4.87
2023-02-14T22:11:19.409Z,4.80
2023-02-14T22:13:46.397Z,4.74
2023-02-14T22:16:15.647Z,4.66
2023-02-14T22:18:42.953Z,4.63
2023-02-14T22:21:12.402Z,4.82
2023-02-14T22:23:39.982Z,4.60
2023-02-14T22:26:15.369Z,4.56
2023-02-14T22:28:43.181Z,4.55
2023-02-14T22:31:10.586Z,4.74
2023-02-14T22:33:38.080Z,4.61
2023-02-14T22:36:06.495Z,4.66
2023-02-14T22:38:34.305Z,4.66
2023-02-14T22:41:09.784Z,4.77
2023-02-14T22:43:37.048Z,4.75
2023-02-14T22:46:12.290Z,4.67
2023-02-14T22:48:40.659Z,4.48
2023-02-14T22:51:21.024Z,4.51
2023-02-14T22:53:48.898Z,4.44
2023-02-14T22:56:17.196Z,4.40
2023-02-14T22:58:44.616Z,4.68
2023-02-14T23:01:16.814Z,4.51
2023-02-14T23:03:44.843Z,4.52
2023-02-14T23:06:12.660Z,4.60
2023-02-14T23:08:43.858Z,4.67
2023-02-14T23:11:13.786Z,4.68
2023-02-14T23:14:00.595Z,4.74
2023-02-14T23:16:46.359Z,4.86
2023-02-14T23:19:34.824Z,4.84
2023-02-14T23:22:05.995Z,5.03
2023-02-14T23:24:33.009Z,4.85
2023-02-14T23:27:00.276Z,4.79
2023-02-14T23:29:27.173Z,4.88
2023-02-14T23:31:54.201Z,4.85
2023-02-14T23:34:25.414Z,4.89
2023-02-14T23:36:52.441Z,4.97
2023-02-14T23:39:19.374Z,5.15
2023-02-14T23:41:49.280Z,4.89
2023-02-14T23:44:21.567Z,4.76
2023-02-14T23:46:50.566Z,4.76
2023-02-14T23:49:18.739Z,4.89
2023-02-14T23:51:47.642Z,4.95
2023-02-14T23:54:15.063Z,4.92
2023-02-14T23:56:42.232Z,4.96
2023-02-14T23:59:10.115Z,4.91
